createdAt,value
2019-01-20T00:00:41.889Z,-4.20
2019-01-20T00:01:46.343Z,-4.30
2019-01-20T00:02:50.771Z,-4.30
2019-01-20T00:03:55.552Z,-4.20
2019-01-20T00:05:00.245Z,-4.30
2019-01-20T00:06:04.882Z,-4.20
2019-01-20T00:07:09.405Z,-4.20
2019-01-20T00:08:14.056Z,-4.20
2019-01-20T00:09:18.997Z,-4.30
2019-01-20T00:10:23.616Z,-4.30
2019-01-20T00:11:28.199Z,-4.30
2019-01-20T00:12:32.783Z,-4.40
2019-01-20T00:13:37.289Z,-4.60
2019-01-20T00:14:41.720Z,-4.60
2019-01-20T00:15:46.784Z,-4.70
2019-01-20T00:16:51.277Z,-4.70
2019-01-20T00:17:55.742Z,-4.80
2019-01-20T00:19:00.253Z,-4.70
2019-01-20T00:20:05.500Z,-4.70
2019-01-20T00:21:10.035Z,-4.70
2019-01-20T00:22:14.776Z,-4.70
2019-01-20T00:23:19.293Z,-4.70
2019-01-20T00:24:23.691Z,-4.60
2019-01-20T00:25:28.277Z,-4.60
2019-01-20T00:26:32.686Z,-4.50
2019-01-20T00:27:38.965Z,-4.50
2019-01-20T00:28:43.357Z,-4.50
2019-01-20T00:29:47.873Z,-4.60
2019-01-20T00:30:52.396Z,-4.50
2019-01-20T00:31:56.775Z,-4.60
2019-01-20T00:33:01.368Z,-4.60
2019-01-20T00:34:06.095Z,-4.60
2019-01-20T00:35:10.697Z,-4.60
2019-01-20T00:36:15.208Z,-4.60
2019-01-20T00:37:19.609Z,-4.60
2019-01-20T00:38:24.040Z,-4.70
2019-01-20T00:39:28.563Z,-4.70
2019-01-20T00:40:33.153Z,-4.80
2019-01-20T00:41:37.835Z,-4.90
2019-01-20T00:42:42.307Z,-4.90
2019-01-20T00:43:46.685Z,-5.00
2019-01-20T00:44:51.258Z,-5.10
2019-01-20T00:45:55.826Z,-5.20
2019-01-20T00:47:00.483Z,-5.30
2019-01-20T00:48:04.979Z,-5.30
2019-01-20T00:49:09.607Z,-5.40
2019-01-20T00:50:15.201Z,-5.40
2019-01-20T00:51:19.660Z,-5.50
2019-01-20T00:52:24.082Z,-5.60
2019-01-20T00:53:28.589Z,-5.60
2019-01-20T00:54:32.995Z,-5.60
2019-01-20T00:55:37.370Z,-5.70
2019-01-20T00:56:41.796Z,-5.60
2019-01-20T00:57:46.533Z,-5.60
2019-01-20T00:58:50.983Z,-5.60
2019-01-20T00:59:55.413Z,-5.60
2019-01-20T01:00:59.866Z,-5.60
2019-01-20T01:02:05.119Z,-5.50
2019-01-20T01:03:09.607Z,-5.60
2019-01-20T01:04:14.158Z,-5.60
2019-01-20T01:05:19.242Z,-5.60
2019-01-20T01:06:23.651Z,-5.60
2019-01-20T01:07:28.265Z,-5.40
2019-01-20T01:08:32.919Z,-5.70
2019-01-20T01:09:37.504Z,-5.70
2019-01-20T01:10:42.055Z,-5.70
2019-01-20T01:11:46.564Z,-5.70
2019-01-20T01:12:51.585Z,-5.70
2019-01-20T01:13:56.035Z,-5.70
2019-01-20T01:15:00.693Z,-5.80
2019-01-20T01:16:05.232Z,-5.80
2019-01-20T01:17:09.754Z,-5.80
2019-01-20T01:18:14.653Z,-5.80
2019-01-20T01:19:19.162Z,-5.80
2019-01-20T01:20:23.530Z,-5.80
2019-01-20T01:21:28.441Z,-5.80
2019-01-20T01:22:33.144Z,-5.70
2019-01-20T01:23:37.673Z,-5.70
2019-01-20T01:24:42.118Z,-5.70
2019-01-20T01:25:46.594Z,-5.70
2019-01-20T01:26:51.161Z,-5.70
2019-01-20T01:27:58.725Z,-5.80
2019-01-20T01:29:03.259Z,-5.80
2019-01-20T01:30:11.061Z,-5.80
2019-01-20T01:31:15.600Z,-5.80
2019-01-20T01:32:20.136Z,-5.90
2019-01-20T01:33:24.592Z,-5.90
2019-01-20T01:34:29.051Z,-6.00
2019-01-20T01:35:33.538Z,-6.00
2019-01-20T01:36:38.059Z,-6.10
2019-01-20T01:37:42.788Z,-6.10
2019-01-20T01:38:47.175Z,-6.20
2019-01-20T01:39:51.613Z,-6.20
2019-01-20T01:40:56.144Z,-6.20
2019-01-20T01:42:00.540Z,-6.30
2019-01-20T01:43:05.260Z,-6.30
2019-01-20T01:44:09.786Z,-6.30
2019-01-20T01:45:19.364Z,-6.30
2019-01-20T01:46:23.913Z,-6.30
2019-01-20T01:47:28.728Z,-6.30
2019-01-20T01:48:33.237Z,-6.30
2019-01-20T01:49:37.636Z,-6.20
2019-01-20T01:50:42.180Z,-6.20
2019-01-20T01:51:46.583Z,-6.20
2019-01-20T01:52:51.109Z,-6.10
2019-01-20T01:53:55.678Z,-6.10
2019-01-20T01:55:01.624Z,-6.00
2019-01-20T01:56:06.007Z,-6.00
2019-01-20T01:57:10.440Z,-5.90
2019-01-20T01:58:14.861Z,-5.80
2019-01-20T01:59:19.891Z,-5.70
2019-01-20T02:00:24.727Z,-5.70
2019-01-20T02:01:29.286Z,-5.60
2019-01-20T02:02:33.892Z,-5.60
2019-01-20T02:03:38.481Z,-5.60
2019-01-20T02:04:42.930Z,-5.60
2019-01-20T02:05:47.364Z,-5.60
2019-01-20T02:06:53.540Z,-5.60
2019-01-20T02:08:00.769Z,-5.70
2019-01-20T02:09:07.886Z,-5.70
2019-01-20T02:10:15.044Z,-5.80
2019-01-20T02:11:19.531Z,-5.80
2019-01-20T02:12:23.983Z,-5.80
2019-01-20T02:13:28.592Z,-5.80
2019-01-20T02:14:33.196Z,-5.90
2019-01-20T02:15:37.819Z,-5.90
2019-01-20T02:16:42.275Z,-5.90
2019-01-20T02:17:46.987Z,-5.90
2019-01-20T02:18:51.591Z,-5.80
2019-01-20T02:19:56.033Z,-5.80
2019-01-20T02:21:00.397Z,-5.80
2019-01-20T02:22:05.191Z,-5.80
2019-01-20T02:23:09.936Z,-5.90
2019-01-20T02:24:14.424Z,-5.90
2019-01-20T02:25:18.922Z,-5.90
2019-01-20T02:26:23.332Z,-6.00
2019-01-20T02:27:27.821Z,-6.10
2019-01-20T02:28:32.237Z,-6.10
2019-01-20T02:29:36.644Z,-6.20
2019-01-20T02:30:41.293Z,-6.20
2019-01-20T02:31:45.880Z,-6.20
2019-01-20T02:32:50.392Z,-6.20
2019-01-20T02:33:55.053Z,-6.20
2019-01-20T02:34:59.446Z,-6.10
2019-01-20T02:36:03.892Z,-6.10
2019-01-20T02:37:08.289Z,-6.10
2019-01-20T02:38:12.953Z,-6.10
2019-01-20T02:39:17.428Z,-6.00
2019-01-20T02:40:21.811Z,-6.00
2019-01-20T02:41:26.212Z,-6.00
2019-01-20T02:42:31.997Z,-6.00
2019-01-20T02:43:36.562Z,-6.00
2019-01-20T02:44:41.235Z,-5.90
2019-01-20T02:45:45.963Z,-5.90
2019-01-20T02:46:50.565Z,-6.00
2019-01-20T02:47:55.448Z,-5.90
2019-01-20T02:49:00.113Z,-6.00
2019-01-20T02:50:05.044Z,-6.00
2019-01-20T02:51:09.468Z,-6.00
2019-01-20T02:52:13.888Z,-6.00
2019-01-20T02:53:18.367Z,-6.00
2019-01-20T02:54:22.819Z,-6.10
2019-01-20T02:55:27.189Z,-6.10
2019-01-20T02:56:31.683Z,-6.10
2019-01-20T02:57:36.096Z,-6.10
2019-01-20T02:58:40.511Z,-6.10
2019-01-20T02:59:44.971Z,-6.10
2019-01-20T03:00:49.408Z,-6.10
2019-01-20T03:01:53.885Z,-6.00
2019-01-20T03:02:58.245Z,-5.90
2019-01-20T03:04:02.655Z,-5.90
2019-01-20T03:05:08.413Z,-5.90
2019-01-20T03:06:13.497Z,-5.80
2019-01-20T03:07:17.930Z,-5.80
2019-01-20T03:08:22.409Z,-5.70
2019-01-20T03:09:26.938Z,-5.70
2019-01-20T03:10:31.396Z,-5.70
2019-01-20T03:11:35.888Z,-5.70
2019-01-20T03:12:40.769Z,-5.70
2019-01-20T03:13:45.376Z,-5.60
2019-01-20T03:14:49.853Z,-5.70
2019-01-20T03:15:54.547Z,-5.60
2019-01-20T03:17:01.462Z,-5.60
2019-01-20T03:18:06.741Z,-5.60
2019-01-20T03:19:11.255Z,-5.60
2019-01-20T03:20:18.842Z,-5.60
2019-01-20T03:21:23.464Z,-5.50
2019-01-20T03:22:27.954Z,-5.50
2019-01-20T03:23:32.654Z,-5.50
2019-01-20T03:24:37.157Z,-5.50
2019-01-20T03:25:41.576Z,-5.60
2019-01-20T03:26:46.162Z,-5.60
2019-01-20T03:27:50.561Z,-5.60
2019-01-20T03:28:55.465Z,-5.70
2019-01-20T03:29:59.938Z,-5.70
2019-01-20T03:31:04.317Z,-5.70
2019-01-20T03:32:08.827Z,-5.60
2019-01-20T03:33:13.410Z,-5.60
2019-01-20T03:34:17.899Z,-5.60
2019-01-20T03:35:25.034Z,-5.60
2019-01-20T03:36:29.460Z,-5.60
2019-01-20T03:37:33.863Z,-5.70
2019-01-20T03:38:38.421Z,-5.70
2019-01-20T03:39:43.030Z,-5.80
2019-01-20T03:40:47.497Z,-5.80
2019-01-20T03:41:51.955Z,-5.80
2019-01-20T03:42:56.408Z,-5.90
2019-01-20T03:44:00.890Z,-5.90
2019-01-20T03:45:05.935Z,-6.00
2019-01-20T03:46:10.594Z,-6.00
2019-01-20T03:47:15.095Z,-6.10
2019-01-20T03:48:19.565Z,-6.20
2019-01-20T03:49:24.121Z,-6.20
2019-01-20T03:50:28.568Z,-6.30
2019-01-20T03:51:32.925Z,-6.40
2019-01-20T03:52:37.361Z,-6.40
2019-01-20T03:53:41.760Z,-6.50
2019-01-20T03:54:46.176Z,-6.50
2019-01-20T03:55:50.653Z,-6.60
2019-01-20T03:56:55.063Z,-6.60
2019-01-20T03:57:59.516Z,-6.60
2019-01-20T03:59:04.276Z,-6.60
2019-01-20T04:00:21.202Z,-6.60
2019-01-20T04:01:25.684Z,-6.60
2019-01-20T04:02:30.144Z,-6.60
2019-01-20T04:03:34.575Z,-6.60
2019-01-20T04:04:38.987Z,-6.70
2019-01-20T04:05:43.791Z,-6.70
2019-01-20T04:06:48.179Z,-6.70
2019-01-20T04:07:53.210Z,-6.70
2019-01-20T04:09:00.618Z,-6.70
2019-01-20T04:10:07.930Z,-6.60
2019-01-20T04:11:12.394Z,-6.60
2019-01-20T04:12:20.672Z,-6.60
2019-01-20T04:13:23.041Z,-6.60
2019-01-20T04:14:27.459Z,-6.50
2019-01-20T04:15:31.926Z,-6.60
2019-01-20T04:16:36.546Z,-6.60
2019-01-20T04:17:41.089Z,-6.50
2019-01-20T04:18:45.710Z,-6.40
2019-01-20T04:19:50.182Z,-6.30
2019-01-20T04:20:54.795Z,-6.20
2019-01-20T04:22:02.001Z,-6.20
2019-01-20T04:23:06.658Z,-6.10
2019-01-20T04:24:13.873Z,-6.00
2019-01-20T04:25:19.083Z,-5.90
2019-01-20T04:26:23.544Z,-5.90
2019-01-20T04:27:27.900Z,-5.90
2019-01-20T04:28:32.529Z,-5.90
2019-01-20T04:29:37.180Z,-5.80
2019-01-20T04:30:41.625Z,-5.80
2019-01-20T04:31:48.366Z,-5.80
2019-01-20T04:32:52.786Z,-5.80
2019-01-20T04:33:57.142Z,-5.80
2019-01-20T04:35:01.576Z,-5.80
2019-01-20T04:36:06.089Z,-5.80
2019-01-20T04:37:10.445Z,-5.80
2019-01-20T04:38:14.851Z,-5.90
2019-01-20T04:39:19.320Z,-5.90
2019-01-20T04:40:24.495Z,-5.90
2019-01-20T04:41:28.941Z,-5.90
2019-01-20T04:42:33.405Z,-6.00
2019-01-20T04:43:37.821Z,-6.00
2019-01-20T04:44:42.194Z,-6.10
2019-01-20T04:45:46.663Z,-6.10
2019-01-20T04:46:51.248Z,-6.10
2019-01-20T04:47:55.656Z,-6.10
2019-01-20T04:49:00.088Z,-6.20
2019-01-20T04:50:05.057Z,-6.20
2019-01-20T04:51:09.591Z,-6.20
2019-01-20T04:52:14.144Z,-6.20
2019-01-20T04:53:18.527Z,-6.20
2019-01-20T04:54:22.948Z,-6.10
2019-01-20T04:55:27.375Z,-6.10
2019-01-20T04:56:31.775Z,-6.10
2019-01-20T04:57:36.544Z,-6.10
2019-01-20T04:58:41.136Z,-6.10
2019-01-20T04:59:45.708Z,-6.10
2019-01-20T05:00:50.599Z,-6.10
2019-01-20T05:01:54.943Z,-6.10
2019-01-20T05:02:59.532Z,-6.10
2019-01-20T05:04:04.030Z,-6.10
2019-01-20T05:05:08.471Z,-6.00
2019-01-20T05:06:12.958Z,-6.00
2019-01-20T05:07:17.471Z,-6.00
2019-01-20T05:08:22.226Z,-6.00
2019-01-20T05:09:26.758Z,-6.00
2019-01-20T05:10:31.148Z,-5.90
2019-01-20T05:11:35.744Z,-6.00
2019-01-20T05:12:40.284Z,-5.90
2019-01-20T05:13:44.805Z,-5.90
2019-01-20T05:14:50.765Z,-5.80
2019-01-20T05:15:55.184Z,-5.90
2019-01-20T05:16:59.582Z,-5.90
2019-01-20T05:18:04.150Z,-5.80
2019-01-20T05:19:08.639Z,-5.80
2019-01-20T05:20:13.982Z,-5.80
2019-01-20T05:21:18.580Z,-5.80
2019-01-20T05:22:22.995Z,-5.80
2019-01-20T05:23:27.440Z,-5.80
2019-01-20T05:24:31.934Z,-5.80
2019-01-20T05:25:36.363Z,-5.80
2019-01-20T05:26:40.939Z,-5.80
2019-01-20T05:27:45.535Z,-5.90
2019-01-20T05:28:50.137Z,-5.90
2019-01-20T05:29:54.752Z,-5.90
2019-01-20T05:30:59.161Z,-5.90
2019-01-20T05:32:03.787Z,-6.00
2019-01-20T05:33:08.311Z,-6.10
2019-01-20T05:34:12.732Z,-6.10
2019-01-20T05:35:17.344Z,-6.10
2019-01-20T05:36:21.724Z,-6.20
2019-01-20T05:37:26.329Z,-6.30
2019-01-20T05:38:31.859Z,-6.40
2019-01-20T05:39:36.237Z,-6.40
2019-01-20T05:40:40.759Z,-6.50
2019-01-20T05:41:45.305Z,-6.60
2019-01-20T05:42:50.113Z,-6.60
2019-01-20T05:43:54.542Z,-6.70
2019-01-20T05:44:59.104Z,-6.70
2019-01-20T05:46:03.529Z,-6.80
2019-01-20T05:47:07.994Z,-6.80
2019-01-20T05:48:12.912Z,-6.80
2019-01-20T05:49:17.434Z,-6.70
2019-01-20T05:50:21.907Z,-6.60
2019-01-20T05:51:26.454Z,-6.60
2019-01-20T05:52:30.933Z,-6.50
2019-01-20T05:53:35.331Z,-6.60
2019-01-20T05:54:39.809Z,-6.50
2019-01-20T05:55:44.274Z,-6.60
2019-01-20T05:56:48.743Z,-6.60
2019-01-20T05:57:53.183Z,-6.60
2019-01-20T05:58:57.492Z,-6.70
2019-01-20T06:00:02.052Z,-6.70
2019-01-20T06:01:06.501Z,-6.80
2019-01-20T06:02:11.045Z,-6.90
2019-01-20T06:03:15.525Z,-6.90
2019-01-20T06:04:19.936Z,-7.00
2019-01-20T06:05:24.393Z,-7.00
2019-01-20T06:06:28.947Z,-7.10
2019-01-20T06:07:33.504Z,-7.10
2019-01-20T06:08:38.370Z,-7.10
2019-01-20T06:09:42.764Z,-7.20
2019-01-20T06:10:47.181Z,-7.20
2019-01-20T06:11:51.694Z,-7.20
2019-01-20T06:12:56.072Z,-7.20
2019-01-20T06:14:00.466Z,-7.20
2019-01-20T06:15:06.080Z,-7.20
2019-01-20T06:16:10.697Z,-7.20
2019-01-20T06:17:15.355Z,-7.10
2019-01-20T06:18:19.999Z,-7.10
2019-01-20T06:19:24.759Z,-7.10
2019-01-20T06:20:29.495Z,-7.10
2019-01-20T06:21:33.884Z,-7.10
2019-01-20T06:22:38.336Z,-7.20
2019-01-20T06:23:42.677Z,-7.20
2019-01-20T06:24:47.249Z,-7.20
2019-01-20T06:25:51.611Z,-7.20
2019-01-20T06:26:56.077Z,-7.20
2019-01-20T06:28:00.502Z,-7.20
2019-01-20T06:29:05.172Z,-7.20
2019-01-20T06:30:19.161Z,-7.20
2019-01-20T06:31:23.636Z,-7.20
2019-01-20T06:32:28.131Z,-7.20
2019-01-20T06:33:32.518Z,-7.20
2019-01-20T06:34:37.021Z,-7.20
2019-01-20T06:35:41.375Z,-7.10
2019-01-20T06:36:45.974Z,-7.00
2019-01-20T06:37:50.334Z,-7.00
2019-01-20T06:38:54.915Z,-6.90
2019-01-20T06:39:59.440Z,-6.90
2019-01-20T06:41:03.870Z,-6.90
2019-01-20T06:42:08.385Z,-6.90
2019-01-20T06:43:13.095Z,-6.90
2019-01-20T06:44:17.708Z,-6.90
2019-01-20T06:45:22.080Z,-6.80
2019-01-20T06:46:26.462Z,-6.80
2019-01-20T06:47:31.016Z,-6.80
2019-01-20T06:48:35.599Z,-6.80
2019-01-20T06:49:40.252Z,-6.70
2019-01-20T06:50:44.731Z,-6.70
2019-01-20T06:51:52.214Z,-6.60
2019-01-20T06:52:56.750Z,-6.60
2019-01-20T06:54:01.259Z,-6.50
2019-01-20T06:55:06.181Z,-6.60
2019-01-20T06:56:14.215Z,-6.50
2019-01-20T06:57:18.663Z,-6.50
2019-01-20T06:58:23.133Z,-6.50
2019-01-20T06:59:27.494Z,-6.40
2019-01-20T07:00:31.951Z,-6.40
2019-01-20T07:01:36.502Z,-6.30
2019-01-20T07:02:40.962Z,-6.30
2019-01-20T07:03:45.420Z,-6.30
2019-01-20T07:04:50.314Z,-6.30
2019-01-20T07:05:54.949Z,-6.40
2019-01-20T07:06:59.975Z,-6.40
2019-01-20T07:08:04.409Z,-6.40
2019-01-20T07:09:09.180Z,-6.40
2019-01-20T07:10:15.439Z,-6.50
2019-01-20T07:11:20.162Z,-6.60
2019-01-20T07:12:24.764Z,-6.60
2019-01-20T07:13:29.372Z,-6.70
2019-01-20T07:14:33.863Z,-6.70
2019-01-20T07:15:38.422Z,-6.70
2019-01-20T07:16:43.199Z,-6.80
2019-01-20T07:17:47.652Z,-6.80
2019-01-20T07:18:52.092Z,-6.80
2019-01-20T07:19:56.732Z,-6.80
2019-01-20T07:21:01.541Z,-6.70
2019-01-20T07:22:06.233Z,-6.80
2019-01-20T07:23:10.716Z,-6.80
2019-01-20T07:24:18.472Z,-6.70
2019-01-20T07:25:23.288Z,-6.70
2019-01-20T07:26:28.173Z,-6.70
2019-01-20T07:27:33.006Z,-6.70
2019-01-20T07:28:37.609Z,-6.70
2019-01-20T07:29:43.009Z,-6.70
2019-01-20T07:30:47.404Z,-6.70
2019-01-20T07:31:51.876Z,-6.70
2019-01-20T07:32:56.370Z,-6.80
2019-01-20T07:34:01.171Z,-6.80
2019-01-20T07:35:06.747Z,-6.70
2019-01-20T07:36:13.873Z,-6.70
2019-01-20T07:37:18.664Z,-6.60
2019-01-20T07:38:23.036Z,-6.40
2019-01-20T07:39:27.471Z,-6.40
2019-01-20T07:40:31.898Z,-6.30
2019-01-20T07:41:37.162Z,-6.30
2019-01-20T07:42:41.504Z,-6.20
2019-01-20T07:43:46.064Z,-6.20
2019-01-20T07:44:55.959Z,-6.10
2019-01-20T07:46:03.441Z,-6.00
2019-01-20T07:47:07.955Z,-6.00
2019-01-20T07:48:13.319Z,-5.90
2019-01-20T07:49:17.840Z,-5.80
2019-01-20T07:50:27.012Z,-5.70
2019-01-20T07:51:32.013Z,-5.70
2019-01-20T07:52:36.513Z,-5.70
2019-01-20T07:53:41.001Z,-5.60
2019-01-20T07:54:48.523Z,-5.60
2019-01-20T07:55:55.410Z,-5.60
2019-01-20T07:57:00.326Z,-5.60
2019-01-20T07:58:04.907Z,-5.50
2019-01-20T07:59:09.680Z,-5.50
2019-01-20T08:00:17.213Z,-5.50
2019-01-20T08:01:22.351Z,-5.50
2019-01-20T08:02:27.004Z,-5.50
2019-01-20T08:03:31.777Z,-5.50
2019-01-20T08:04:36.375Z,-5.40
2019-01-20T08:05:41.453Z,-5.40
2019-01-20T08:06:45.938Z,-5.40
2019-01-20T08:07:50.762Z,-5.40
2019-01-20T08:08:58.145Z,-5.40
2019-01-20T08:10:04.120Z,-5.40
2019-01-20T08:11:09.984Z,-5.30
2019-01-20T08:12:23.547Z,-5.20
2019-01-20T08:13:28.464Z,-5.20
2019-01-20T08:14:33.079Z,-5.20
2019-01-20T08:15:38.146Z,-5.20
2019-01-20T08:16:43.178Z,-5.10
2019-01-20T08:17:48.289Z,-5.10
2019-01-20T08:18:53.686Z,-5.00
2019-01-20T08:19:58.420Z,-5.00
2019-01-20T08:21:03.090Z,-5.00
2019-01-20T08:22:07.627Z,-5.00
2019-01-20T08:23:16.408Z,-5.00
2019-01-20T08:24:20.891Z,-5.00
2019-01-20T08:25:26.282Z,-4.90
2019-01-20T08:26:31.063Z,-5.00
2019-01-20T08:27:35.943Z,-4.90
2019-01-20T08:28:40.577Z,-4.90
2019-01-20T08:29:45.266Z,-4.90
2019-01-20T08:30:49.762Z,-4.80
2019-01-20T08:31:54.293Z,-4.80
2019-01-20T08:32:58.993Z,-4.80
2019-01-20T08:34:03.926Z,-4.80
2019-01-20T08:35:09.342Z,-4.70
2019-01-20T08:36:14.534Z,-4.70
2019-01-20T08:37:19.435Z,-4.70
2019-01-20T08:38:23.864Z,-4.70
2019-01-20T08:39:28.709Z,-4.70
2019-01-20T08:40:33.275Z,-4.60
2019-01-20T08:41:37.939Z,-4.60
2019-01-20T08:42:42.730Z,-4.60
2019-01-20T08:43:47.592Z,-4.50
2019-01-20T08:44:52.367Z,-4.50
2019-01-20T08:46:18.497Z,-4.40
2019-01-20T08:47:46.184Z,-4.40
2019-01-20T08:48:50.788Z,-4.40
2019-01-20T08:49:55.450Z,-4.30
2019-01-20T08:51:00.015Z,-4.20
2019-01-20T08:52:04.577Z,-4.20
2019-01-20T08:53:09.253Z,-4.10
2019-01-20T08:54:14.471Z,-4.10
2019-01-20T08:55:19.113Z,-4.10
2019-01-20T08:56:23.738Z,-4.00
2019-01-20T08:57:28.419Z,-4.00
2019-01-20T08:58:33.152Z,-3.90
2019-01-20T08:59:37.796Z,-3.80
2019-01-20T09:00:43.439Z,-3.70
2019-01-20T09:01:48.256Z,-3.70
2019-01-20T09:02:52.709Z,-3.60
2019-01-20T09:03:57.320Z,-3.60
2019-01-20T09:05:01.873Z,-3.50
2019-01-20T09:06:06.578Z,-3.40
2019-01-20T09:07:11.240Z,-3.40
2019-01-20T09:08:16.676Z,-3.30
2019-01-20T09:09:21.273Z,-3.20
2019-01-20T09:10:27.566Z,-3.20
2019-01-20T09:11:32.809Z,-3.20
2019-01-20T09:12:38.137Z,-3.10
2019-01-20T09:13:42.745Z,-3.00
2019-01-20T09:14:47.301Z,-3.00
2019-01-20T09:15:51.714Z,-3.00
2019-01-20T09:16:56.434Z,-3.00
2019-01-20T09:18:02.446Z,-3.00
2019-01-20T09:19:06.834Z,-3.00
2019-01-20T09:20:11.719Z,-3.00
2019-01-20T09:21:16.411Z,-3.00
2019-01-20T09:22:20.780Z,-2.90
2019-01-20T09:23:25.242Z,-2.80
2019-01-20T09:24:29.763Z,-2.70
2019-01-20T09:25:34.337Z,-2.70
2019-01-20T09:26:38.775Z,-2.60
2019-01-20T09:27:43.166Z,-2.60
2019-01-20T09:28:48.200Z,-2.50
2019-01-20T09:29:52.663Z,-2.50
2019-01-20T09:30:57.275Z,-2.40
2019-01-20T09:32:01.945Z,-2.30
2019-01-20T09:33:24.551Z,-2.30
2019-01-20T09:34:25.411Z,-2.30
2019-01-20T09:35:29.930Z,-2.10
2019-01-20T09:36:34.376Z,-2.10
2019-01-20T09:37:39.012Z,-2.10
2019-01-20T09:38:43.439Z,-2.00
2019-01-20T09:39:48.082Z,-2.00
2019-01-20T09:40:52.629Z,-2.10
2019-01-20T09:41:57.083Z,-2.00
2019-01-20T09:43:01.691Z,-2.00
2019-01-20T09:44:06.249Z,-2.00
2019-01-20T09:45:15.750Z,-2.00
2019-01-20T09:46:20.371Z,-2.00
2019-01-20T09:47:25.059Z,-2.00
2019-01-20T09:48:29.592Z,-2.10
2019-01-20T09:49:34.395Z,-2.10
2019-01-20T09:50:38.808Z,-2.10
2019-01-20T09:51:43.273Z,-2.10
2019-01-20T09:52:47.804Z,-2.10
2019-01-20T09:53:52.205Z,-2.10
2019-01-20T09:54:56.584Z,-2.10
2019-01-20T09:56:01.029Z,-2.10
2019-01-20T09:57:05.572Z,-2.20
2019-01-20T09:58:10.361Z,-2.20
2019-01-20T09:59:15.649Z,-2.20
2019-01-20T10:00:21.134Z,-2.20
2019-01-20T10:01:25.597Z,-2.20
2019-01-20T10:02:29.997Z,-2.20
2019-01-20T10:03:34.509Z,-2.20
2019-01-20T10:04:38.916Z,-2.20
2019-01-20T10:05:43.374Z,-2.10
2019-01-20T10:06:48.170Z,-2.20
2019-01-20T10:07:52.734Z,-2.10
2019-01-20T10:08:57.481Z,-2.20
2019-01-20T10:10:01.964Z,-2.20
2019-01-20T10:11:06.803Z,-2.10
2019-01-20T10:12:13.112Z,-2.10
2019-01-20T10:13:17.634Z,-2.10
2019-01-20T10:14:22.141Z,-2.00
2019-01-20T10:15:26.648Z,-2.00
2019-01-20T10:16:31.373Z,-2.00
2019-01-20T10:17:36.054Z,-2.00
2019-01-20T10:18:40.566Z,-2.00
2019-01-20T10:19:45.343Z,-2.00
2019-01-20T10:20:50.040Z,-1.90
2019-01-20T10:21:54.932Z,-1.80
2019-01-20T10:22:59.996Z,-1.80
2019-01-20T10:24:04.697Z,-1.80
2019-01-20T10:25:15.022Z,-1.80
2019-01-20T10:26:16.334Z,-1.70
2019-01-20T10:27:21.017Z,-1.70
2019-01-20T10:28:26.994Z,-1.70
2019-01-20T10:29:31.891Z,-1.60
2019-01-20T10:30:37.619Z,-1.60
2019-01-20T10:31:42.009Z,-1.60
2019-01-20T10:32:48.107Z,-1.60
2019-01-20T10:33:52.777Z,-1.50
2019-01-20T10:34:58.269Z,-1.50
2019-01-20T10:36:04.697Z,-1.60
2019-01-20T10:37:09.396Z,-1.50
2019-01-20T10:38:14.313Z,-1.50
2019-01-20T10:39:18.880Z,-1.40
2019-01-20T10:40:23.620Z,-1.40
2019-01-20T10:41:28.254Z,-1.30
2019-01-20T10:42:32.714Z,-1.30
2019-01-20T10:43:37.336Z,-1.30
2019-01-20T10:44:41.957Z,-1.30
2019-01-20T10:45:46.454Z,-1.20
2019-01-20T10:46:51.029Z,-1.20
2019-01-20T10:47:55.443Z,-1.10
2019-01-20T10:49:00.238Z,-1.10
2019-01-20T10:50:06.243Z,-1.10
2019-01-20T10:51:10.876Z,-1.10
2019-01-20T10:52:15.589Z,-1.00
2019-01-20T10:53:20.336Z,-1.00
2019-01-20T10:54:24.917Z,-0.90
2019-01-20T10:55:29.490Z,-0.90
2019-01-20T10:56:34.123Z,-0.90
2019-01-20T10:57:38.679Z,-0.80
2019-01-20T10:58:43.321Z,-0.70
2019-01-20T10:59:47.951Z,-0.70
2019-01-20T11:00:52.552Z,-0.70
2019-01-20T11:01:57.090Z,-0.60
2019-01-20T11:03:05.217Z,-0.50
2019-01-20T11:04:09.707Z,-0.50
2019-01-20T11:05:14.614Z,-0.50
2019-01-20T11:06:19.779Z,-0.40
2019-01-20T11:07:24.353Z,-0.40
2019-01-20T11:08:31.135Z,-0.30
2019-01-20T11:09:35.848Z,-0.30
2019-01-20T11:10:40.623Z,-0.20
2019-01-20T11:11:45.178Z,-0.20
2019-01-20T11:12:50.233Z,-0.10
2019-01-20T11:13:54.985Z,-0.10
2019-01-20T11:15:00.043Z,-0.10
2019-01-20T11:16:04.866Z,-0.10
2019-01-20T11:17:09.449Z,0.00
2019-01-20T11:18:14.246Z,0.00
2019-01-20T11:19:18.928Z,0.00
2019-01-20T11:20:23.526Z,0.00
2019-01-20T11:21:28.238Z,0.10
2019-01-20T11:22:32.795Z,0.10
2019-01-20T11:23:37.319Z,0.10
2019-01-20T11:24:41.957Z,0.10
2019-01-20T11:25:46.405Z,0.20
2019-01-20T11:26:50.897Z,0.20
2019-01-20T11:27:55.416Z,0.20
2019-01-20T11:28:59.930Z,0.30
2019-01-20T11:30:05.031Z,0.40
2019-01-20T11:31:09.488Z,0.40
2019-01-20T11:32:14.299Z,0.40
2019-01-20T11:33:18.814Z,0.50
2019-01-20T11:34:23.496Z,0.40
2019-01-20T11:35:28.129Z,0.50
2019-01-20T11:36:32.860Z,0.50
2019-01-20T11:37:37.356Z,0.50
2019-01-20T11:38:41.864Z,0.50
2019-01-20T11:39:46.288Z,0.60
2019-01-20T11:40:50.836Z,0.60
2019-01-20T11:41:55.369Z,0.60
2019-01-20T11:42:59.878Z,0.70
2019-01-20T11:44:04.641Z,0.70
2019-01-20T11:45:16.598Z,0.70
2019-01-20T11:46:21.848Z,0.80
2019-01-20T11:47:26.377Z,0.90
2019-01-20T11:48:31.019Z,0.90
2019-01-20T11:49:36.604Z,0.90
2019-01-20T11:50:41.207Z,0.90
2019-01-20T11:51:45.820Z,1.00
2019-01-20T11:52:50.418Z,1.00
2019-01-20T11:53:55.234Z,1.00
2019-01-20T11:55:00.018Z,1.00
2019-01-20T11:56:04.835Z,1.00
2019-01-20T11:57:09.523Z,1.10
2019-01-20T11:58:16.601Z,1.10
2019-01-20T11:59:21.126Z,1.10
2019-01-20T12:00:28.264Z,1.20
2019-01-20T12:01:32.906Z,1.20
2019-01-20T12:02:37.483Z,1.20
2019-01-20T12:03:42.173Z,1.30
2019-01-20T12:04:46.820Z,1.40
2019-01-20T12:05:54.215Z,1.40
2019-01-20T12:06:59.877Z,1.40
2019-01-20T12:08:05.204Z,1.40
2019-01-20T12:09:12.338Z,1.50
2019-01-20T12:10:17.563Z,1.50
2019-01-20T12:11:22.365Z,1.50
2019-01-20T12:12:27.772Z,1.40
2019-01-20T12:13:32.703Z,1.40
2019-01-20T12:14:37.333Z,1.50
2019-01-20T12:15:41.920Z,1.50
2019-01-20T12:16:46.880Z,1.50
2019-01-20T12:17:54.600Z,1.50
2019-01-20T12:18:59.570Z,1.60
2019-01-20T12:20:04.500Z,1.60
2019-01-20T12:21:13.906Z,1.70
2019-01-20T12:22:21.244Z,1.70
2019-01-20T12:23:26.327Z,1.60
2019-01-20T12:24:31.137Z,1.60
2019-01-20T12:25:36.159Z,1.60
2019-01-20T12:26:43.829Z,1.60
2019-01-20T12:27:54.184Z,1.60
2019-01-20T12:29:03.107Z,1.50
2019-01-20T12:30:08.129Z,1.60
2019-01-20T12:31:12.968Z,1.60
2019-01-20T12:32:17.460Z,1.60
2019-01-20T12:33:22.011Z,1.60
2019-01-20T12:34:26.548Z,1.60
2019-01-20T12:35:31.129Z,1.60
2019-01-20T12:36:35.721Z,1.60
2019-01-20T12:37:43.879Z,1.70
2019-01-20T12:38:48.934Z,1.70
2019-01-20T12:39:54.165Z,1.70
2019-01-20T12:40:59.212Z,1.60
2019-01-20T12:42:03.798Z,1.60
2019-01-20T12:43:08.392Z,1.60
2019-01-20T12:44:17.689Z,1.70
2019-01-20T12:45:24.734Z,1.70
2019-01-20T12:46:30.066Z,1.70
2019-01-20T12:47:34.790Z,1.70
2019-01-20T12:48:39.400Z,1.70
2019-01-20T12:49:44.173Z,1.70
2019-01-20T12:50:48.694Z,1.70
2019-01-20T12:51:53.264Z,1.70
2019-01-20T12:52:57.746Z,1.70
2019-01-20T12:54:02.287Z,1.70
2019-01-20T12:55:07.279Z,1.70
2019-01-20T12:56:13.670Z,1.70
2019-01-20T12:57:18.196Z,1.70
2019-01-20T12:58:22.897Z,1.70
2019-01-20T12:59:27.427Z,1.70
2019-01-20T13:00:32.178Z,1.70
2019-01-20T13:01:39.750Z,1.60
2019-01-20T13:02:44.414Z,1.80
2019-01-20T13:03:48.985Z,1.80
2019-01-20T13:04:56.426Z,1.80
2019-01-20T13:05:59.866Z,1.90
2019-01-20T13:07:04.847Z,1.80
2019-01-20T13:08:09.601Z,1.90
2019-01-20T13:09:14.417Z,1.90
2019-01-20T13:10:19.501Z,1.90
2019-01-20T13:11:24.041Z,1.90
2019-01-20T13:12:28.553Z,1.90
2019-01-20T13:13:33.185Z,1.90
2019-01-20T13:14:39.254Z,1.90
2019-01-20T13:15:43.854Z,1.90
2019-01-20T13:16:48.294Z,2.00
2019-01-20T13:17:55.251Z,2.00
2019-01-20T13:18:59.705Z,2.00
2019-01-20T13:20:05.723Z,2.00
2019-01-20T13:21:10.624Z,2.00
2019-01-20T13:22:15.375Z,1.90
2019-01-20T13:23:21.633Z,1.90
2019-01-20T13:24:26.198Z,1.90
2019-01-20T13:25:31.486Z,1.90
2019-01-20T13:26:37.048Z,1.90
2019-01-20T13:27:41.462Z,1.90
2019-01-20T13:28:46.157Z,1.80
2019-01-20T13:30:02.951Z,1.90
2019-01-20T13:31:07.557Z,1.90
2019-01-20T13:32:12.842Z,1.80
2019-01-20T13:33:20.168Z,1.80
2019-01-20T13:34:25.016Z,1.90
2019-01-20T13:35:30.157Z,1.80
2019-01-20T13:36:34.815Z,1.90
2019-01-20T13:37:41.603Z,1.90
2019-01-20T13:38:46.330Z,1.90
2019-01-20T13:39:51.277Z,1.90
2019-01-20T13:41:07.783Z,1.90
2019-01-20T13:42:12.322Z,1.90
2019-01-20T13:43:20.953Z,1.90
2019-01-20T13:44:25.639Z,1.90
2019-01-20T13:45:30.435Z,1.90
2019-01-20T13:46:34.983Z,2.00
2019-01-20T13:47:39.486Z,2.00
2019-01-20T13:48:43.951Z,2.00
2019-01-20T13:49:48.473Z,2.00
2019-01-20T13:50:53.037Z,2.00
2019-01-20T13:51:57.490Z,2.00
2019-01-20T13:53:01.939Z,2.00
2019-01-20T13:54:06.522Z,2.00
2019-01-20T13:55:11.916Z,2.00
2019-01-20T13:56:16.563Z,2.00
2019-01-20T13:57:21.189Z,2.00
2019-01-20T13:58:26.214Z,2.00
2019-01-20T13:59:30.774Z,2.00
2019-01-20T14:00:35.376Z,2.10
2019-01-20T14:01:40.141Z,2.10
2019-01-20T14:02:44.789Z,2.10